createdAt,value
2022-12-17T00:01:26.262Z,106.53
2022-12-17T00:04:33.460Z,126.82
2022-12-17T00:07:40.366Z,102.40
2022-12-17T00:10:47.443Z,106.15
2022-12-17T00:13:54.314Z,97.95
2022-12-17T00:17:03.033Z,104.28
2022-12-17T00:20:09.957Z,120.80
2022-12-17T00:23:20.200Z,90.30
2022-12-17T00:26:27.606Z,91.70
2022-12-17T00:29:34.630Z,118.03
2022-12-17T00:32:42.822Z,90.63
2022-12-17T00:35:51.248Z,124.45
2022-12-17T00:38:58.909Z,85.18
2022-12-17T00:42:05.966Z,113.95
2022-12-17T00:45:12.418Z,148.07
2022-12-17T00:48:20.570Z,100.88
2022-12-17T00:51:27.382Z,165.38
2022-12-17T00:54:34.489Z,100.88
2022-12-17T00:57:41.629Z,89.18
2022-12-17T01:00:48.868Z,97.63
2022-12-17T01:03:57.054Z,112.07
2022-12-17T01:07:04.029Z,89.82
2022-12-17T01:10:11.319Z,111.35
2022-12-17T01:13:18.124Z,96.15
2022-12-17T01:16:28.141Z,128.70
2022-12-17T01:19:36.354Z,108.85
2022-12-17T01:22:45.238Z,92.80
2022-12-17T01:25:51.773Z,114.57
2022-12-17T01:28:58.944Z,72.78
2022-12-17T01:32:05.538Z,102.63
2022-12-17T01:35:13.606Z,79.43
2022-12-17T01:38:20.643Z,36.40
2022-12-17T01:41:28.297Z,32.92
2022-12-17T01:45:06.770Z,35.80
2022-12-17T01:48:14.809Z,45.67
2022-12-17T01:51:24.401Z,124.70
2022-12-17T01:54:32.090Z,63.20
2022-12-17T01:57:38.788Z,40.25
2022-12-17T02:00:45.897Z,59.35
2022-12-17T02:03:52.754Z,25.33
2022-12-17T02:07:13.547Z,18.40
2022-12-17T02:10:36.946Z,75.63
2022-12-17T02:14:05.830Z,76.00
2022-12-17T02:17:19.232Z,33.97
2022-12-17T02:20:40.059Z,32.25
2022-12-17T02:24:00.775Z,80.22
2022-12-17T02:27:13.002Z,106.97
2022-12-17T02:30:25.320Z,28.45
2022-12-17T02:33:33.613Z,38.47
2022-12-17T02:36:41.207Z,53.38
2022-12-17T02:39:48.723Z,32.42
2022-12-17T02:42:57.501Z,35.25
2022-12-17T02:46:06.215Z,71.30
2022-12-17T02:49:13.429Z,82.90
2022-12-17T02:52:23.071Z,126.22
2022-12-17T02:55:30.189Z,104.88
2022-12-17T02:58:38.323Z,68.95
2022-12-17T03:01:44.938Z,63.55
2022-12-17T03:04:52.150Z,45.28
2022-12-17T03:07:59.199Z,30.02
2022-12-17T03:11:06.192Z,37.85
2022-12-17T03:14:14.263Z,32.00
2022-12-17T03:17:21.493Z,45.47
2022-12-17T03:20:29.875Z,34.45
2022-12-17T03:23:36.479Z,29.60
2022-12-17T03:26:43.771Z,32.60
2022-12-17T03:29:51.874Z,40.60
2022-12-17T03:32:58.645Z,21.77
2022-12-17T03:36:19.988Z,41.20
2022-12-17T03:39:27.009Z,21.30
2022-12-17T03:42:33.680Z,22.02
2022-12-17T03:45:41.799Z,28.35
2022-12-17T03:48:48.501Z,18.90
2022-12-17T03:51:54.971Z,22.73
2022-12-17T03:55:16.717Z,21.02
2022-12-17T03:58:23.286Z,41.28
2022-12-17T04:01:31.485Z,39.83
2022-12-17T04:04:47.020Z,30.00
2022-12-17T04:07:53.696Z,26.90
2022-12-17T04:11:00.636Z,44.80
2022-12-17T04:14:07.539Z,78.45
2022-12-17T04:17:15.737Z,21.52
2022-12-17T04:20:23.380Z,74.90
2022-12-17T04:23:30.260Z,17.85
2022-12-17T04:26:36.708Z,28.05
2022-12-17T04:29:43.235Z,34.65
2022-12-17T04:32:51.326Z,31.25
2022-12-17T04:35:54.448Z,23.60
2022-12-17T04:39:00.864Z,22.52
2022-12-17T04:42:07.834Z,25.10
2022-12-17T04:45:14.705Z,23.83
2022-12-17T04:48:25.490Z,17.65
2022-12-17T04:51:28.707Z,23.42
2022-12-17T04:54:35.057Z,32.63
2022-12-17T04:57:42.031Z,34.33
2022-12-17T05:00:48.935Z,24.70
2022-12-17T05:03:57.584Z,32.20
2022-12-17T05:07:04.367Z,42.15
2022-12-17T05:10:11.098Z,53.53
2022-12-17T05:13:18.618Z,33.97
2022-12-17T05:16:25.669Z,30.80
2022-12-17T05:19:42.326Z,15.55
2022-12-17T05:22:49.264Z,15.50
2022-12-17T05:25:56.078Z,23.00
2022-12-17T05:29:03.186Z,31.75
2022-12-17T05:32:10.447Z,48.15
2022-12-17T05:35:18.674Z,54.30
2022-12-17T05:38:28.441Z,56.20
2022-12-17T05:41:35.311Z,23.50
2022-12-17T05:44:42.259Z,70.97
2022-12-17T05:47:48.723Z,16.67
2022-12-17T05:50:56.781Z,17.80
2022-12-17T05:54:03.455Z,24.23
2022-12-17T05:57:09.896Z,23.30
2022-12-17T06:00:16.947Z,21.55
2022-12-17T06:03:24.423Z,49.38
2022-12-17T06:06:32.799Z,18.95
2022-12-17T06:09:40.305Z,23.73
2022-12-17T06:12:47.300Z,24.83
2022-12-17T06:15:54.337Z,28.17
2022-12-17T06:19:01.453Z,19.60
2022-12-17T06:22:09.864Z,18.05
2022-12-17T06:25:16.534Z,37.67
2022-12-17T06:28:23.639Z,29.10
2022-12-17T06:31:30.917Z,48.05
2022-12-17T06:34:37.559Z,17.13
2022-12-17T06:37:45.604Z,21.60
2022-12-17T06:40:52.589Z,22.75
2022-12-17T06:43:59.388Z,28.45
2022-12-17T06:47:06.353Z,75.28
2022-12-17T06:50:13.282Z,33.58
2022-12-17T06:53:25.649Z,46.15
2022-12-17T06:56:32.232Z,16.65
2022-12-17T06:59:39.176Z,42.90
2022-12-17T07:02:45.697Z,16.52
2022-12-17T07:05:53.078Z,46.00
2022-12-17T07:09:01.044Z,19.27
2022-12-17T07:12:08.179Z,27.25
2022-12-17T07:15:14.578Z,29.52
2022-12-17T07:18:23.355Z,21.60
2022-12-17T07:21:30.029Z,54.20
2022-12-17T07:24:38.111Z,62.47
2022-12-17T07:27:56.559Z,17.98
2022-12-17T07:31:03.595Z,26.63
2022-12-17T07:34:10.494Z,48.53
2022-12-17T07:37:28.519Z,40.08
2022-12-17T07:40:36.411Z,47.92
2022-12-17T07:43:43.622Z,35.80
2022-12-17T07:46:52.929Z,30.42
2022-12-17T07:49:59.748Z,19.15
2022-12-17T07:53:06.217Z,16.40
2022-12-17T07:56:22.688Z,46.97
2022-12-17T07:59:29.282Z,32.03
2022-12-17T08:02:35.890Z,15.00
2022-12-17T08:05:42.898Z,23.25
2022-12-17T08:08:49.484Z,22.67
2022-12-17T08:11:57.499Z,15.18
2022-12-17T08:15:04.249Z,17.08
2022-12-17T08:18:10.927Z,15.13
2022-12-17T08:21:17.938Z,17.67
2022-12-17T08:24:25.092Z,24.00
2022-12-17T08:27:33.255Z,17.52
2022-12-17T08:30:39.781Z,18.40
2022-12-17T08:33:46.972Z,25.10
2022-12-17T08:36:54.336Z,19.33
2022-12-17T08:40:01.374Z,21.63
2022-12-17T08:43:16.117Z,26.38
2022-12-17T08:46:23.127Z,16.95
2022-12-17T08:49:30.048Z,19.63
2022-12-17T08:52:37.000Z,34.63
2022-12-17T08:55:43.716Z,17.50
2022-12-17T08:58:57.173Z,16.95
2022-12-17T09:02:05.745Z,17.65
2022-12-17T09:05:12.521Z,16.48
2022-12-17T09:08:27.312Z,16.17
2022-12-17T09:11:34.385Z,17.10
2022-12-17T09:14:42.591Z,16.80
2022-12-17T09:17:49.537Z,19.02
2022-12-17T09:20:56.598Z,16.42
2022-12-17T09:24:03.593Z,16.45
2022-12-17T09:27:10.882Z,16.17
2022-12-17T09:30:19.290Z,19.20
2022-12-17T09:33:26.190Z,19.95
2022-12-17T09:36:33.113Z,19.50
2022-12-17T09:39:39.822Z,19.33
2022-12-17T09:42:59.862Z,18.80
2022-12-17T09:46:18.538Z,19.60
2022-12-17T09:49:36.543Z,19.08
2022-12-17T09:52:47.296Z,18.30
2022-12-17T09:56:04.926Z,16.30
2022-12-17T09:59:12.016Z,20.48
2022-12-17T10:02:32.256Z,15.35
2022-12-17T10:05:44.141Z,16.13
2022-12-17T10:08:51.093Z,19.65
2022-12-17T10:11:58.089Z,49.40
2022-12-17T10:15:04.546Z,74.57
2022-12-17T10:18:12.828Z,89.38
2022-12-17T10:21:21.071Z,33.97
2022-12-17T10:24:29.599Z,20.45
2022-12-17T10:27:39.041Z,34.83
2022-12-17T10:30:47.281Z,27.58
2022-12-17T10:33:59.107Z,21.17
2022-12-17T10:37:09.312Z,18.27
2022-12-17T10:40:19.727Z,16.98
2022-12-17T10:43:46.705Z,23.38
2022-12-17T10:46:53.907Z,17.20
2022-12-17T10:50:02.416Z,15.82
2022-12-17T10:53:15.864Z,25.55
2022-12-17T10:56:24.154Z,15.88
2022-12-17T10:59:32.091Z,15.77
2022-12-17T11:02:45.555Z,15.45
2022-12-17T11:05:59.680Z,20.10
2022-12-17T11:09:06.871Z,18.33
2022-12-17T11:12:13.854Z,18.20
2022-12-17T11:15:33.920Z,17.35
2022-12-17T11:18:46.560Z,16.60
2022-12-17T11:22:03.330Z,17.02
2022-12-17T11:25:21.539Z,20.65
2022-12-17T11:28:36.233Z,16.80
2022-12-17T11:32:05.211Z,17.42
2022-12-17T11:35:25.491Z,16.75
2022-12-17T11:38:48.279Z,18.00
2022-12-17T11:42:11.219Z,17.85
2022-12-17T11:45:23.892Z,17.92
2022-12-17T11:48:41.011Z,16.73
2022-12-17T11:51:59.667Z,21.30
2022-12-17T11:55:17.748Z,17.20
2022-12-17T11:58:35.105Z,17.17
2022-12-17T12:01:52.389Z,46.38
2022-12-17T12:05:25.090Z,29.50
2022-12-17T12:08:40.321Z,28.95
2022-12-17T12:11:56.585Z,44.60
2022-12-17T12:15:16.669Z,47.92
2022-12-17T12:18:29.408Z,66.55
2022-12-17T12:21:59.441Z,64.05
2022-12-17T12:25:31.322Z,50.92
2022-12-17T12:28:49.739Z,45.95
2022-12-17T12:32:03.317Z,46.10
2022-12-17T12:38:21.325Z,44.15
2022-12-17T12:41:38.529Z,40.63
2022-12-17T12:44:56.576Z,36.00
2022-12-17T12:48:12.707Z,36.78
2022-12-17T12:51:33.722Z,43.95
2022-12-17T12:54:48.858Z,39.60
2022-12-17T12:57:59.183Z,40.95
2022-12-17T13:01:14.748Z,45.45
2022-12-17T13:04:41.908Z,47.03
2022-12-17T13:07:33.907Z,53.85
2022-12-17T13:10:30.966Z,46.50
2022-12-17T13:13:36.012Z,46.85
2022-12-17T13:16:51.078Z,39.60
2022-12-17T13:19:43.000Z,37.42
2022-12-17T13:22:34.756Z,35.80
2022-12-17T13:25:25.272Z,38.50
2022-12-17T13:28:30.882Z,34.08
2022-12-17T13:31:26.594Z,39.65
2022-12-17T13:34:27.210Z,46.50
2022-12-17T13:37:27.832Z,43.30
2022-12-17T13:40:35.193Z,41.92
2022-12-17T13:43:32.095Z,32.75
2022-12-17T13:46:24.045Z,31.65
2022-12-17T13:49:23.099Z,29.35
2022-12-17T13:52:20.262Z,31.58
2022-12-17T13:55:19.611Z,30.17
2022-12-17T13:58:27.492Z,29.10
2022-12-17T14:01:16.946Z,30.42
2022-12-17T14:04:07.375Z,32.70
2022-12-17T14:07:01.306Z,43.63
2022-12-17T14:09:51.100Z,28.02
2022-12-17T14:12:40.693Z,31.50
2022-12-17T14:15:34.311Z,32.40
2022-12-17T14:18:23.766Z,27.42
2022-12-17T14:21:13.300Z,35.95
2022-12-17T14:24:04.728Z,34.75
2022-12-17T14:26:56.419Z,26.80
2022-12-17T14:29:48.017Z,36.03
2022-12-17T14:32:38.362Z,32.65
2022-12-17T14:35:30.576Z,25.40
2022-12-17T14:38:37.122Z,24.25
2022-12-17T14:41:47.845Z,24.30
2022-12-17T14:44:39.700Z,28.20
2022-12-17T14:47:31.688Z,25.23
2022-12-17T14:50:31.332Z,23.55
2022-12-17T14:53:28.932Z,22.63
2022-12-17T14:56:25.037Z,28.73
2022-12-17T14:59:27.141Z,69.38
2022-12-17T15:02:26.423Z,32.78
2022-12-17T15:05:17.182Z,45.92
2022-12-17T15:08:07.263Z,37.88
2022-12-17T15:10:56.765Z,50.38
2022-12-17T15:13:49.129Z,63.72
2022-12-17T15:16:42.684Z,62.30
2022-12-17T15:19:32.645Z,63.25
2022-12-17T15:22:22.220Z,60.30
2022-12-17T15:25:14.154Z,70.63
2022-12-17T15:28:03.858Z,68.25
2022-12-17T15:30:53.309Z,66.65
2022-12-17T15:33:44.522Z,71.95
2022-12-17T15:36:34.534Z,81.28
2022-12-17T15:39:23.866Z,69.88
2022-12-17T15:42:30.660Z,75.13
2022-12-17T15:45:20.091Z,83.82
2022-12-17T15:48:09.558Z,85.28
2022-12-17T15:51:00.214Z,84.32
2022-12-17T15:53:49.774Z,69.32
2022-12-17T15:56:39.041Z,68.05
2022-12-17T15:59:28.376Z,68.35
2022-12-17T16:02:17.836Z,68.32
2022-12-17T16:05:08.519Z,67.15
2022-12-17T16:08:02.480Z,73.13
2022-12-17T16:10:52.169Z,70.57
2022-12-17T16:13:42.104Z,83.30
2022-12-17T16:16:31.982Z,79.38
2022-12-17T16:19:25.276Z,84.60
2022-12-17T16:22:14.689Z,83.30
2022-12-17T16:25:06.141Z,89.22
2022-12-17T16:27:55.606Z,91.97
2022-12-17T16:30:45.014Z,98.63
2022-12-17T16:33:36.043Z,136.45
2022-12-17T16:36:26.138Z,153.60
2022-12-17T16:39:18.980Z,132.80
2022-12-17T16:42:10.042Z,119.88
2022-12-17T16:44:59.448Z,110.53
2022-12-17T16:47:50.786Z,99.90
2022-12-17T16:50:40.173Z,92.75
2022-12-17T16:53:32.404Z,51.88
2022-12-17T16:56:24.714Z,49.67
2022-12-17T16:59:17.934Z,50.33
2022-12-17T17:02:13.203Z,62.03
2022-12-17T17:05:02.709Z,49.70
2022-12-17T17:07:52.178Z,45.65
2022-12-17T17:10:41.522Z,45.58
2022-12-17T17:13:30.794Z,83.95
2022-12-17T17:16:24.305Z,103.45
2022-12-17T17:19:13.813Z,125.80
2022-12-17T17:22:03.391Z,135.20
2022-12-17T17:24:53.611Z,107.72
2022-12-17T17:27:44.743Z,107.53
2022-12-17T17:30:34.302Z,105.93
2022-12-17T17:33:29.681Z,113.45
2022-12-17T17:36:22.225Z,111.38
2022-12-17T17:39:11.837Z,99.32
2022-12-17T17:42:01.356Z,91.50
2022-12-17T17:44:50.835Z,94.55
2022-12-17T17:47:40.340Z,90.00
2022-12-17T17:50:31.096Z,93.43
2022-12-17T17:53:20.371Z,96.38
2022-12-17T17:56:15.240Z,89.82
2022-12-17T17:59:07.256Z,95.32
2022-12-17T18:01:56.667Z,98.85
2022-12-17T18:04:46.096Z,109.05
2022-12-17T18:07:36.802Z,184.77
2022-12-17T18:10:26.111Z,150.93
2022-12-17T18:13:32.904Z,172.93
2022-12-17T18:16:23.903Z,185.82
2022-12-17T18:19:16.466Z,173.30
2022-12-17T18:22:05.826Z,187.10
2022-12-17T18:24:56.485Z,185.57
2022-12-17T18:27:45.873Z,179.18
2022-12-17T18:30:35.393Z,179.32
2022-12-17T18:33:25.321Z,193.77
2022-12-17T18:36:18.184Z,210.13
2022-12-17T18:39:12.278Z,204.82
2022-12-17T18:42:20.263Z,243.13
2022-12-17T18:45:10.522Z,252.68
2022-12-17T18:47:59.852Z,263.63
2022-12-17T18:50:49.125Z,243.38
2022-12-17T18:53:38.417Z,262.30
2022-12-17T18:56:59.469Z,249.95
2022-12-17T18:59:40.874Z,221.52
2022-12-17T19:02:30.495Z,220.68
2022-12-17T19:05:19.976Z,230.38
2022-12-17T19:08:09.243Z,240.88
2022-12-17T19:11:04.491Z,236.32
2022-12-17T19:13:53.812Z,259.50
2022-12-17T19:16:44.966Z,267.58
2022-12-17T19:19:34.687Z,273.95
2022-12-17T19:22:23.915Z,278.08
2022-12-17T19:25:13.548Z,315.33
2022-12-17T19:28:02.903Z,324.77
2022-12-17T19:30:58.390Z,393.17
2022-12-17T19:33:49.662Z,354.83
2022-12-17T19:36:40.880Z,373.48
2022-12-17T19:39:30.367Z,273.63
2022-12-17T19:42:25.808Z,223.38
2022-12-17T19:45:15.102Z,231.32
2022-12-17T19:48:04.502Z,202.02
2022-12-17T19:50:59.113Z,188.98
2022-12-17T19:53:49.628Z,143.00
2022-12-17T19:56:39.120Z,181.55
2022-12-17T19:59:28.473Z,127.45
2022-12-17T20:02:17.863Z,137.35
2022-12-17T20:05:08.985Z,141.48
2022-12-17T20:07:59.691Z,130.45
2022-12-17T20:10:49.071Z,91.47
2022-12-17T20:13:38.436Z,76.13
2022-12-17T20:16:27.840Z,54.92
2022-12-17T20:19:19.956Z,46.58
2022-12-17T20:22:09.304Z,42.17
2022-12-17T20:25:02.066Z,47.63
2022-12-17T20:27:51.450Z,41.10
2022-12-17T20:30:41.378Z,37.55
2022-12-17T20:33:31.544Z,48.47
2022-12-17T20:36:22.835Z,45.22
2022-12-17T20:39:13.293Z,43.75
2022-12-17T20:42:04.026Z,49.85
2022-12-17T20:44:53.758Z,53.40
2022-12-17T20:47:43.150Z,50.30
2022-12-17T20:50:32.687Z,55.45
2022-12-17T20:53:22.583Z,51.08
2022-12-17T20:56:14.818Z,56.97
2022-12-17T20:59:08.775Z,55.03
2022-12-17T21:01:58.215Z,62.80
2022-12-17T21:04:47.760Z,57.50
2022-12-17T21:07:37.290Z,83.93
2022-12-17T21:10:26.617Z,77.43
2022-12-17T21:13:31.380Z,81.43
2022-12-17T21:16:25.305Z,95.18
2022-12-17T21:19:21.546Z,68.80
2022-12-17T21:22:11.198Z,61.63
2022-12-17T21:25:02.148Z,59.85
2022-12-17T21:27:51.463Z,60.15
2022-12-17T21:30:40.892Z,63.08
2022-12-17T21:33:32.179Z,60.75
2022-12-17T21:36:22.940Z,60.50
2022-12-17T21:39:14.970Z,62.28
2022-12-17T21:42:22.023Z,72.35
2022-12-17T21:45:11.999Z,68.45
2022-12-17T21:48:01.448Z,70.13
2022-12-17T21:50:52.891Z,72.47
2022-12-17T21:53:43.775Z,73.07
2022-12-17T21:56:33.239Z,70.35
2022-12-17T21:59:22.754Z,72.15
2022-12-17T22:02:12.550Z,87.80
2022-12-17T22:05:02.252Z,80.28
2022-12-17T22:07:54.521Z,102.68
2022-12-17T22:10:47.679Z,108.53
2022-12-17T22:14:01.881Z,129.90
2022-12-17T22:16:56.229Z,87.13
2022-12-17T22:19:45.680Z,96.63
2022-12-17T22:22:35.373Z,83.43
2022-12-17T22:25:26.225Z,92.63
2022-12-17T22:28:15.678Z,92.95
2022-12-17T22:31:23.914Z,91.15
2022-12-17T22:35:02.521Z,85.88
2022-12-17T22:41:36.947Z,70.78
2022-12-17T22:44:33.646Z,78.82
2022-12-17T22:44:46.624Z,82.70
2022-12-17T22:46:55.359Z,88.70
2022-12-17T22:49:44.845Z,83.50
2022-12-17T22:52:34.159Z,79.78
2022-12-17T22:55:24.147Z,83.57
2022-12-17T22:58:15.251Z,89.47
2022-12-17T23:01:06.083Z,84.75
2022-12-17T23:03:56.759Z,101.40
2022-12-17T23:06:47.280Z,82.72
2022-12-17T23:09:36.675Z,94.18
2022-12-17T23:12:43.691Z,90.45
2022-12-17T23:15:38.399Z,93.60
2022-12-17T23:18:27.798Z,94.82
2022-12-17T23:21:20.410Z,95.50
2022-12-17T23:24:10.517Z,90.70
2022-12-17T23:27:00.104Z,96.80
2022-12-17T23:29:49.522Z,86.43
2022-12-17T23:32:40.495Z,83.57
2022-12-17T23:35:29.870Z,87.72
2022-12-17T23:38:19.188Z,85.32
2022-12-17T23:41:12.124Z,74.07
2022-12-17T23:44:01.924Z,59.45
2022-12-17T23:46:51.584Z,54.70
2022-12-17T23:49:42.344Z,62.75
2022-12-17T23:52:31.675Z,67.20
2022-12-17T23:55:21.104Z,71.10
2022-12-17T23:58:10.417Z,66.82
